Huvudsida
METAR-TAF:

METAR-TAF

Flygplatser :

Heidrun, Norge

latitud: 65-19-30N, longitud: 007-19-36E, höjd: 0 m

Aktuellt väderrapport

Denna rapport gjordes för 15 minuter sedan, klockan 19:20 UTC
Vind 32 kt från väst/sydväst
Temperatur 10°C
Fuktighet 87%
Tryck 1018 hPa
Sikt 10 km eller mer
Brutna moln på en höjd av 1800 ft

METAR: ENHE 251920Z 24032KT 9999 BKN018 10/08 Q1018 W///S5

Tid: 21:35 (19:35 UTC)

Väderprognos

Denna rapport gjordes för 2 timmar och 35 minuter sedan, klockan 17:00 UTC
Prognos gäller från 25 kl. 18 UTC till 26 kl. 03 UTC
Vind 35 kt från väst/sydväst
Sikt 10 km eller mer
Få moln på en höjd av 1200 ft
Brutna moln på en höjd av 2500 ft

TAF: ENHE 251700Z 2518/2603 25035KT 9999 FEW012 BKN025

Aktuella väderrapporter och prognoser från 4000 flygplatser (METAR- och TAF-rapporter).

De tillgängliga stationerna syns som gula och röda prickar på kartan.

För musen över prickarna för att se namnen på stationerna.

Klicka sedan för att få väderrapporter och prognoser.

För att ändra kartan: Klicka på de gröna knapparna med ett svart kors på för att zooma in; den gröna knappen med ett streck på för att zooma ut; eller på de gröna pilarna för angränsande kartor.


METAR-TAF: